Time;durP1;ratioP1;P1;durP2;ratioP2;P2;SDS_P1;SDS_P2;PMS_P1;PMS_P2;Temp;Humidity;BMP_temperature;BMP_pressure;BME280_temperature;BME280_humidity;BME280_pressure;Samples;Min_cycle;Max_cycle;Signal;HPM_P1;HPM_P2
2021/08/12 01:16:42;;;;;;;;;10.50;8.50;;;;;;;;3424078;23;8865;-86
2021/08/12 01:19:22;;;;;;;;;11.50;7.50;;;;;;;;4968492;28;8889;-86
2021/08/12 01:21:56;;;;;;;;;7.50;7.50;;;;;;;;4985345;28;8881;-87
2021/08/12 01:24:25;;;;;;;;;4.75;4.75;;;;;;;;4985351;28;8899;-86
2021/08/12 01:26:55;;;;;;;;;10.00;8.25;;;;;;;;4972366;28;8916;-85
2021/08/12 01:29:34;;;;;;;;;7.25;7.25;;;;;;;;4986313;28;9649;-85
2021/08/12 01:32:08;;;;;;;;;10.25;8.25;;;;;;;;4965755;28;9261;-86
2021/08/12 01:35:07;;;;;;;;;11.75;11.75;;;;;;;;4984036;28;8846;-85
2021/08/12 01:37:36;;;;;;;;;11.25;10.25;;;;;;;;4951104;28;8888;-87
2021/08/12 01:40:05;;;;;;;;;12.00;12.00;;;;;;;;4976708;28;8982;-84
2021/08/12 01:42:34;;;;;;;;;14.25;13.75;;;;;;;;4967811;28;8894;-87
2021/08/12 01:45:01;;;;;;;;;11.00;11.00;;;;;;;;4983131;28;8945;-86
2021/08/12 01:47:31;;;;;;;;;13.75;13.75;;;;;;;;4985502;28;8881;-85
2021/08/12 01:50:00;;;;;;;;;12.50;12.50;;;;;;;;4984515;28;8864;-85
2021/08/12 01:52:31;;;;;;;;;13.00;12.00;;;;;;;;4985812;28;8861;-87
2021/08/12 01:54:59;;;;;;;;;11.00;11.00;;;;;;;;4985901;28;8989;-85
2021/08/12 01:57:27;;;;;;;;;10.50;10.50;;;;;;;;4984836;28;8915;-86
2021/08/12 01:59:55;;;;;;;;;13.75;12.75;;;;;;;;4985172;28;8952;-87
2021/08/12 02:02:22;;;;;;;;;12.75;12.75;;;;;;;;4983679;28;8860;-84
2021/08/12 02:04:50;;;;;;;;;14.00;13.00;;;;;;;;4952942;28;8865;-84
2021/08/12 02:07:18;;;;;;;;;13.75;13.00;;;;;;;;4983996;28;8883;-86
2021/08/12 02:09:47;;;;;;;;;14.50;14.50;;;;;;;;4966875;28;8893;-83
2021/08/12 02:12:14;;;;;;;;;13.75;13.75;;;;;;;;4954171;28;8870;-84
2021/08/12 02:14:42;;;;;;;;;15.75;15.75;;;;;;;;4983628;28;8895;-86
2021/08/12 02:25:04;;;;;;;;;10.00;9.25;;;;;;;;4880036;29;8847;-86
2021/08/12 02:27:32;;;;;;;;;14.00;14.00;;;;;;;;4890830;29;8966;-85
2021/08/12 02:29:59;;;;;;;;;12.25;12.25;;;;;;;;4933154;28;8869;-87
2021/08/12 02:32:32;;;;;;;;;9.75;9.75;;;;;;;;4919995;29;8839;-87
2021/08/12 02:35:00;;;;;;;;;15.50;14.75;;;;;;;;4935721;28;8883;-85
2021/08/12 02:37:28;;;;;;;;;16.25;14.75;;;;;;;;4954314;28;8961;-85
2021/08/12 02:39:56;;;;;;;;;17.50;16.00;;;;;;;;4962232;28;8896;-83
2021/08/12 02:42:25;;;;;;;;;17.25;17.25;;;;;;;;4956510;28;8894;-88
2021/08/12 02:44:53;;;;;;;;;15.75;15.75;;;;;;;;4937752;28;8886;-86
2021/08/12 02:47:21;;;;;;;;;13.75;12.50;;;;;;;;4950093;28;9017;-87
2021/08/12 02:49:51;;;;;;;;;14.25;12.25;;;;;;;;4955938;28;8900;-86
2021/08/12 02:52:18;;;;;;;;;14.00;14.00;;;;;;;;4956441;28;8883;-86
2021/08/12 02:54:48;;;;;;;;;12.25;12.25;;;;;;;;4960805;28;8894;-85
2021/08/12 02:57:16;;;;;;;;;18.00;18.00;;;;;;;;4950757;28;8871;-85
2021/08/12 02:59:45;;;;;;;;;15.75;15.75;;;;;;;;4940375;29;8909;-87
2021/08/12 03:02:12;;;;;;;;;15.50;15.50;;;;;;;;4944999;28;8849;-87
2021/08/12 03:04:40;;;;;;;;;13.00;13.00;;;;;;;;4949983;28;8891;-86
2021/08/12 03:07:09;;;;;;;;;15.25;13.75;;;;;;;;4948778;28;8902;-87
2021/08/12 03:09:37;;;;;;;;;14.75;13.50;;;;;;;;4959611;28;8917;-87
2021/08/12 03:12:05;;;;;;;;;13.75;13.75;;;;;;;;4934828;28;8882;-85
2021/08/12 03:14:35;;;;;;;;;14.75;13.25;;;;;;;;4949930;28;8874;-86
2021/08/12 03:17:04;;;;;;;;;16.50;13.00;;;;;;;;4949041;28;8886;-86
2021/08/12 03:19:31;;;;;;;;;11.50;11.50;;;;;;;;4960494;28;8882;-87
2021/08/12 03:22:03;;;;;;;;;15.50;14.50;;;;;;;;4950853;28;8911;-88
2021/08/12 03:24:31;;;;;;;;;16.00;14.25;;;;;;;;4965032;28;8881;-83
2021/08/12 03:26:58;;;;;;;;;14.75;13.50;;;;;;;;4987860;28;8885;-87
2021/08/12 03:29:26;;;;;;;;;14.00;12.75;;;;;;;;4986515;28;8881;-83
2021/08/12 03:31:53;;;;;;;;;15.00;15.00;;;;;;;;4986405;28;8813;-81
2021/08/12 03:34:22;;;;;;;;;15.00;14.25;;;;;;;;4984318;28;8873;-81
2021/08/12 03:46:14;;;;;;;;;15.25;15.25;;;;;;;;4914309;29;8840;-86
2021/08/12 03:48:41;;;;;;;;;19.00;19.00;;;;;;;;4951756;28;8920;-86
2021/08/12 03:51:10;;;;;;;;;12.75;12.75;;;;;;;;4986569;28;8906;-86
2021/08/12 03:53:37;;;;;;;;;16.25;13.25;;;;;;;;4987810;28;8900;-87
2021/08/12 03:56:05;;;;;;;;;20.75;16.75;;;;;;;;4987155;28;8874;-88
2021/08/12 03:58:33;;;;;;;;;15.75;13.75;;;;;;;;4987562;28;8890;-85
2021/08/12 04:01:00;;;;;;;;;15.25;15.25;;;;;;;;4987131;28;8817;-87
2021/08/12 04:03:28;;;;;;;;;13.50;12.75;;;;;;;;4973233;28;8910;-86
2021/08/12 04:05:55;;;;;;;;;15.25;15.25;;;;;;;;4969571;28;9649;-87
2021/08/12 04:08:24;;;;;;;;;14.00;14.00;;;;;;;;4985755;28;8890;-85
2021/08/12 04:10:51;;;;;;;;;14.25;14.25;;;;;;;;4970077;28;8883;-84
2021/08/12 04:13:18;;;;;;;;;17.00;15.25;;;;;;;;4986666;28;9521;-85
2021/08/12 04:15:46;;;;;;;;;17.00;17.00;;;;;;;;4968912;28;8869;-85
2021/08/12 04:18:13;;;;;;;;;12.00;12.00;;;;;;;;4969160;28;8950;-88
2021/08/12 04:20:40;;;;;;;;;16.00;16.00;;;;;;;;4986326;28;8865;-87
2021/08/12 04:23:07;;;;;;;;;16.00;15.00;;;;;;;;4987476;28;8853;-83
2021/08/12 04:25:36;;;;;;;;;14.00;14.00;;;;;;;;4986131;28;8897;-87
2021/08/12 04:28:03;;;;;;;;;15.00;13.50;;;;;;;;4987816;28;8903;-86
2021/08/12 04:30:31;;;;;;;;;15.00;13.50;;;;;;;;4968043;28;8809;-84
2021/08/12 04:32:58;;;;;;;;;16.75;14.25;;;;;;;;4984247;28;9007;-81
2021/08/12 04:35:25;;;;;;;;;15.75;15.25;;;;;;;;4968227;28;9020;-87
2021/08/12 04:37:53;;;;;;;;;17.25;15.50;;;;;;;;4985328;28;9011;-83
2021/08/12 04:40:25;;;;;;;;;16.75;16.75;;;;;;;;4986523;28;9012;-86
2021/08/12 04:42:54;;;;;;;;;14.25;12.50;;;;;;;;4985642;28;8868;-83
2021/08/12 04:45:21;;;;;;;;;14.75;13.25;;;;;;;;4968816;28;8885;-83
2021/08/12 04:47:49;;;;;;;;;12.25;12.25;;;;;;;;4985789;28;8911;-88
2021/08/12 04:50:16;;;;;;;;;15.25;13.00;;;;;;;;4987239;28;8878;-86
2021/08/12 04:52:43;;;;;;;;;6.75;6.75;;;;;;;;4986122;28;9054;-88
2021/08/12 04:55:12;;;;;;;;;15.50;15.50;;;;;;;;4986573;28;8889;-88
2021/08/12 04:57:39;;;;;;;;;13.50;13.25;;;;;;;;4987047;28;9645;-88
2021/08/12 05:00:09;;;;;;;;;15.75;15.75;;;;;;;;4985529;28;8928;-86
2021/08/12 05:02:36;;;;;;;;;12.00;12.00;;;;;;;;4980868;28;8903;-84
2021/08/12 05:05:04;;;;;;;;;12.75;12.75;;;;;;;;4978131;28;8852;-87
2021/08/12 05:07:32;;;;;;;;;14.25;14.00;;;;;;;;4986159;28;8883;-86
2021/08/12 05:10:00;;;;;;;;;11.75;11.75;;;;;;;;4985285;28;8901;-86
2021/08/12 05:12:27;;;;;;;;;14.75;13.25;;;;;;;;4986426;28;8877;-83
2021/08/12 05:14:55;;;;;;;;;15.75;14.00;;;;;;;;4986104;28;8979;-87
2021/08/12 05:17:23;;;;;;;;;15.00;13.25;;;;;;;;4972781;28;8889;-84
2021/08/12 05:19:51;;;;;;;;;12.00;12.00;;;;;;;;4985041;28;8861;-79
2021/08/12 05:22:20;;;;;;;;;13.25;11.75;;;;;;;;4984361;28;8899;-82
2021/08/12 05:24:48;;;;;;;;;12.50;11.50;;;;;;;;4986041;28;9358;-87
2021/08/12 05:27:16;;;;;;;;;13.00;13.00;;;;;;;;4984593;28;8873;-88
2021/08/12 05:29:43;;;;;;;;;13.50;13.50;;;;;;;;4970882;28;8925;-83
2021/08/12 05:32:11;;;;;;;;;13.00;13.00;;;;;;;;4984118;28;8800;-87
2021/08/12 05:34:39;;;;;;;;;11.00;11.00;;;;;;;;4984867;28;8869;-84
2021/08/12 05:37:07;;;;;;;;;14.50;14.50;;;;;;;;4985930;28;8841;-88
2021/08/12 05:39:34;;;;;;;;;15.50;14.50;;;;;;;;4967545;28;9034;-87
2021/08/12 05:42:01;;;;;;;;;12.75;12.75;;;;;;;;4986008;28;8873;-88
2021/08/12 05:44:29;;;;;;;;;13.75;13.75;;;;;;;;4953716;28;8927;-86
2021/08/12 05:46:56;;;;;;;;;13.00;13.00;;;;;;;;4958495;28;8887;-85
2021/08/12 05:49:24;;;;;;;;;10.00;10.00;;;;;;;;4978497;28;8965;-88
2021/08/12 05:51:53;;;;;;;;;15.00;10.75;;;;;;;;4975423;28;8906;-89
2021/08/12 05:54:20;;;;;;;;;17.00;13.75;;;;;;;;4985610;28;9643;-86
2021/08/12 05:56:48;;;;;;;;;12.00;12.00;;;;;;;;4984154;28;8899;-80
2021/08/12 05:59:15;;;;;;;;;12.75;12.75;;;;;;;;4985530;28;8903;-89
2021/08/12 06:01:43;;;;;;;;;12.25;12.25;;;;;;;;4971861;28;8827;-83
2021/08/12 06:04:10;;;;;;;;;10.75;10.75;;;;;;;;4984867;28;9794;-85
2021/08/12 06:06:39;;;;;;;;;16.00;16.00;;;;;;;;4966258;28;8902;-85
2021/08/12 06:09:08;;;;;;;;;11.25;11.25;;;;;;;;4984287;28;8888;-84
2021/08/12 06:11:35;;;;;;;;;13.50;13.25;;;;;;;;4984833;28;9629;-86
2021/08/12 06:14:02;;;;;;;;;16.00;16.00;;;;;;;;4984419;28;8876;-81
2021/08/12 06:16:30;;;;;;;;;13.00;13.00;;;;;;;;4985228;28;8864;-85
2021/08/12 06:18:57;;;;;;;;;13.25;13.25;;;;;;;;4970682;28;8877;-90
2021/08/12 06:21:24;;;;;;;;;13.25;13.25;;;;;;;;4985471;28;8895;-84
2021/08/12 06:23:52;;;;;;;;;17.25;16.50;;;;;;;;4984348;28;8876;-86
2021/08/12 06:26:21;;;;;;;;;19.25;16.50;;;;;;;;4964478;28;8895;-84
2021/08/12 06:28:50;;;;;;;;;16.75;14.75;;;;;;;;4964532;28;8866;-86
2021/08/12 06:33:58;;;;;;;;;14.33;13.67;;;;;;;;4903385;29;9037;-89
2021/08/12 06:36:26;;;;;;;;;19.00;17.75;;;;;;;;4961748;28;8880;-85
2021/08/12 06:38:59;;;;;;;;;16.25;16.00;;;;;;;;4954652;28;8905;-88
2021/08/12 06:41:27;;;;;;;;;14.00;14.00;;;;;;;;4963799;28;8951;-87
2021/08/12 06:43:55;;;;;;;;;17.50;16.00;;;;;;;;4966052;28;8888;-86
2021/08/12 06:46:22;;;;;;;;;16.00;14.25;;;;;;;;4965323;28;9010;-82
2021/08/12 06:48:49;;;;;;;;;14.25;14.25;;;;;;;;4964521;28;9770;-88
2021/08/12 06:51:17;;;;;;;;;16.50;16.00;;;;;;;;4964434;28;8914;-86
2021/08/12 06:53:44;;;;;;;;;16.25;14.75;;;;;;;;4964060;28;8879;-86
2021/08/12 06:56:13;;;;;;;;;20.25;19.50;;;;;;;;4964731;28;8915;-89
2021/08/12 06:58:42;;;;;;;;;13.75;13.75;;;;;;;;4963828;28;8958;-85
2021/08/12 07:01:10;;;;;;;;;16.75;16.00;;;;;;;;4964022;28;8832;-83
2021/08/12 07:03:37;;;;;;;;;17.25;17.25;;;;;;;;4967406;28;9073;-85
2021/08/12 07:06:04;;;;;;;;;15.50;15.00;;;;;;;;4969340;28;8880;-84
2021/08/12 07:08:32;;;;;;;;;13.00;13.00;;;;;;;;4969119;28;9006;-82
2021/08/12 07:10:59;;;;;;;;;17.00;15.50;;;;;;;;4968524;28;8888;-82
2021/08/12 07:13:26;;;;;;;;;15.33;15.33;;;;;;;;4969192;28;8890;-84
2021/08/12 07:15:55;;;;;;;;;15.00;13.75;;;;;;;;4960230;28;8936;-87
2021/08/12 07:18:22;;;;;;;;;17.50;15.00;;;;;;;;4963639;28;9650;-87
2021/08/12 07:20:50;;;;;;;;;15.75;15.75;;;;;;;;4966497;28;8876;-85
2021/08/12 07:23:17;;;;;;;;;14.25;14.25;;;;;;;;4955518;28;9013;-84
2021/08/12 07:38:53;;;;;;;;;14.50;14.50;;;;;;;;4815923;29;8895;-84
2021/08/12 07:41:21;;;;;;;;;17.75;17.75;;;;;;;;4844193;29;9682;-83
2021/08/12 07:43:48;;;;;;;;;14.75;14.75;;;;;;;;4964002;28;8902;-86
2021/08/12 07:46:15;;;;;;;;;16.25;14.50;;;;;;;;4985745;28;8928;-83
2021/08/12 07:48:42;;;;;;;;;11.00;11.00;;;;;;;;4991152;28;8906;-81
2021/08/12 07:51:10;;;;;;;;;12.20;10.40;;;;;;;;4990348;28;8877;-80
2021/08/12 07:53:37;;;;;;;;;11.20;11.20;;;;;;;;4988928;28;8892;-81
2021/08/12 07:56:06;;;;;;;;;13.40;11.80;;;;;;;;4985936;28;8873;-82
2021/08/12 07:58:33;;;;;;;;;15.80;15.00;;;;;;;;4969854;28;8916;-82
2021/08/12 08:01:02;;;;;;;;;17.00;14.00;;;;;;;;4986429;28;8827;-82
2021/08/12 08:03:30;;;;;;;;;13.80;12.60;;;;;;;;4986152;28;8874;-83
2021/08/12 08:06:00;;;;;;;;;14.00;14.00;;;;;;;;4987131;28;8986;-84
2021/08/12 08:08:27;;;;;;;;;13.80;13.20;;;;;;;;4984827;28;8905;-84
2021/08/12 08:10:55;;;;;;;;;11.80;10.80;;;;;;;;4986848;28;8892;-81
2021/08/12 08:13:23;;;;;;;;;13.60;12.00;;;;;;;;4985716;28;8883;-85
2021/08/12 08:15:51;;;;;;;;;14.40;14.40;;;;;;;;4986883;28;8887;-82
2021/08/12 08:18:18;;;;;;;;;12.80;12.40;;;;;;;;4968605;28;8873;-82
2021/08/12 08:20:45;;;;;;;;;13.60;11.80;;;;;;;;4985213;28;8845;-83
2021/08/12 08:23:13;;;;;;;;;14.40;11.80;;;;;;;;4985688;28;8865;-85
2021/08/12 08:25:41;;;;;;;;;11.20;11.20;;;;;;;;4985109;28;8877;-82
2021/08/12 08:31:32;;;;;;;;;7.20;7.20;;;;;;;;4986723;28;9011;-82
2021/08/12 08:34:00;;;;;;;;;10.00;8.80;;;;;;;;4986446;28;8877;-83
2021/08/12 08:36:27;;;;;;;;;9.60;8.00;;;;;;;;4986415;28;8873;-81
2021/08/12 08:38:55;;;;;;;;;12.80;12.80;;;;;;;;4984403;28;8891;-82
2021/08/12 08:41:22;;;;;;;;;11.00;11.00;;;;;;;;4986014;28;9705;-82
2021/08/12 08:43:52;;;;;;;;;9.60;9.60;;;;;;;;4968115;28;8884;-82
2021/08/12 08:46:22;;;;;;;;;11.00;11.00;;;;;;;;4985600;28;8917;-83
2021/08/12 08:48:50;;;;;;;;;13.60;10.20;;;;;;;;4984283;28;8886;-82
2021/08/12 08:51:18;;;;;;;;;9.80;9.80;;;;;;;;4985875;28;8909;-83
2021/08/12 08:53:45;;;;;;;;;8.40;8.40;;;;;;;;4985561;28;8875;-81
2021/08/12 08:56:12;;;;;;;;;9.80;9.80;;;;;;;;4984871;28;8880;-81
2021/08/12 08:58:40;;;;;;;;;8.60;8.60;;;;;;;;4985912;28;8901;-81
2021/08/12 09:01:08;;;;;;;;;11.20;8.20;;;;;;;;4983855;28;8827;-82
2021/08/12 09:03:36;;;;;;;;;7.20;7.20;;;;;;;;4986346;28;8915;-80
2021/08/12 09:06:07;;;;;;;;;7.00;7.00;;;;;;;;4984264;28;8902;-81
2021/08/12 09:08:35;;;;;;;;;9.20;8.40;;;;;;;;4985962;28;8993;-82
2021/08/12 09:11:02;;;;;;;;;8.60;7.40;;;;;;;;4985779;28;8865;-81
2021/08/12 09:13:29;;;;;;;;;9.20;7.40;;;;;;;;4985158;28;8887;-82
2021/08/12 09:15:57;;;;;;;;;8.60;7.60;;;;;;;;4985891;28;8845;-81
2021/08/12 09:18:26;;;;;;;;;7.40;7.40;;;;;;;;4984260;28;8900;-81
2021/08/12 09:20:57;;;;;;;;;6.80;6.80;;;;;;;;4985756;28;8907;-83
2021/08/12 09:23:28;;;;;;;;;6.20;6.20;;;;;;;;4984538;28;9636;-79
2021/08/12 09:25:56;;;;;;;;;6.80;6.80;;;;;;;;4984667;28;8886;-81
2021/08/12 09:28:26;;;;;;;;;6.80;6.80;;;;;;;;4985360;28;8879;-84
2021/08/12 09:31:11;;;;;;;;;4.60;4.60;;;;;;;;4984355;28;8802;-80
2021/08/12 09:33:52;;;;;;;;;6.20;6.20;;;;;;;;4985991;28;8880;-81
2021/08/12 09:36:31;;;;;;;;;5.80;5.80;;;;;;;;4984297;28;8881;-82
2021/08/12 09:39:19;;;;;;;;;5.80;5.80;;;;;;;;4985604;28;9615;-83
2021/08/12 09:41:48;;;;;;;;;5.00;5.00;;;;;;;;4973841;28;8888;-83
2021/08/12 09:44:39;;;;;;;;;7.00;7.00;;;;;;;;4984188;28;9019;-82
2021/08/12 09:47:08;;;;;;;;;7.20;6.60;;;;;;;;4985677;28;8916;-82
2021/08/12 09:49:45;;;;;;;;;8.20;7.00;;;;;;;;4966837;28;8895;-81
2021/08/12 09:52:32;;;;;;;;;5.60;5.60;;;;;;;;4981424;28;8948;-80
2021/08/12 09:55:04;;;;;;;;;6.40;6.40;;;;;;;;4985347;28;8882;-83
2021/08/12 09:57:44;;;;;;;;;7.60;6.00;;;;;;;;4980693;28;8887;-81
2021/08/12 10:00:14;;;;;;;;;6.20;6.20;;;;;;;;4976838;28;9733;-82
2021/08/12 10:02:42;;;;;;;;;6.40;5.00;;;;;;;;4967825;28;9017;-82
2021/08/12 10:05:10;;;;;;;;;5.40;5.40;;;;;;;;4985397;28;8911;-83
2021/08/12 10:07:40;;;;;;;;;6.60;6.00;;;;;;;;4984856;28;8893;-81
2021/08/12 10:10:14;;;;;;;;;10.40;7.00;;;;;;;;4984522;28;8989;-81
2021/08/12 10:12:46;;;;;;;;;6.00;5.00;;;;;;;;4985082;28;9755;-82
2021/08/12 10:15:15;;;;;;;;;9.00;7.60;;;;;;;;4983671;28;8980;-82
2021/08/12 10:17:43;;;;;;;;;8.20;6.80;;;;;;;;4985179;28;8982;-81
2021/08/12 10:20:13;;;;;;;;;6.80;6.20;;;;;;;;4982475;28;8964;-83
2021/08/12 10:22:41;;;;;;;;;5.60;5.60;;;;;;;;4967340;28;8881;-81
2021/08/12 10:25:39;;;;;;;;;7.60;6.40;;;;;;;;4979945;28;8868;-82
2021/08/12 10:28:09;;;;;;;;;5.80;5.80;;;;;;;;4964824;28;8896;-80
2021/08/12 10:30:37;;;;;;;;;6.40;6.40;;;;;;;;4969631;28;8798;-79
2021/08/12 10:33:07;;;;;;;;;7.80;6.00;;;;;;;;4990529;28;8887;-81
2021/08/12 10:35:36;;;;;;;;;6.00;6.00;;;;;;;;4984827;28;8885;-82
2021/08/12 10:38:05;;;;;;;;;7.00;5.00;;;;;;;;4986315;28;8881;-83
2021/08/12 10:40:34;;;;;;;;;5.80;5.80;;;;;;;;4988076;28;8908;-83
2021/08/12 10:43:02;;;;;;;;;6.00;6.00;;;;;;;;4988765;28;8865;-83
2021/08/12 10:45:32;;;;;;;;;8.00;6.80;;;;;;;;4987333;28;8889;-82
2021/08/12 10:48:00;;;;;;;;;6.60;5.40;;;;;;;;4975609;28;8882;-83
2021/08/12 10:50:34;;;;;;;;;5.40;5.00;;;;;;;;4987319;28;8890;-83
2021/08/12 10:53:18;;;;;;;;;4.60;4.60;;;;;;;;4975546;28;8877;-84
2021/08/12 10:56:06;;;;;;;;;6.80;6.80;;;;;;;;4987619;28;8881;-82
2021/08/12 10:58:38;;;;;;;;;5.40;5.40;;;;;;;;4987374;28;8881;-81
2021/08/12 11:01:09;;;;;;;;;7.20;5.60;;;;;;;;4987333;28;8964;-83
2021/08/12 11:03:45;;;;;;;;;5.80;5.80;;;;;;;;4987562;28;8933;-81
2021/08/12 11:06:17;;;;;;;;;7.80;6.40;;;;;;;;4988092;28;9758;-82
2021/08/12 11:09:02;;;;;;;;;8.00;6.40;;;;;;;;4987796;28;8887;-82
2021/08/12 11:12:01;;;;;;;;;5.80;5.80;;;;;;;;4987187;28;8973;-82
2021/08/12 11:15:01;;;;;;;;;5.00;5.00;;;;;;;;4988260;28;8900;-84
2021/08/12 11:17:56;;;;;;;;;2.60;2.60;;;;;;;;4915719;29;8899;-82
2021/08/12 11:20:34;;;;;;;;;7.00;5.40;;;;;;;;4984390;28;9676;-83
2021/08/12 11:23:40;;;;;;;;;6.00;6.00;;;;;;;;4988208;28;8869;-84
2021/08/12 11:26:09;;;;;;;;;8.60;5.60;;;;;;;;4926484;29;8900;-82
2021/08/12 11:28:54;;;;;;;;;6.80;5.80;;;;;;;;4976305;28;8877;-83
2021/08/12 11:31:52;;;;;;;;;6.80;5.80;;;;;;;;4986720;28;8826;-83
2021/08/12 11:34:31;;;;;;;;;5.80;5.80;;;;;;;;4987142;28;8912;-84
2021/08/12 11:37:07;;;;;;;;;6.60;6.60;;;;;;;;4973693;28;8899;-83
2021/08/12 11:39:34;;;;;;;;;5.80;5.80;;;;;;;;4987755;28;9670;-81
2021/08/12 11:42:23;;;;;;;;;6.40;6.40;;;;;;;;4985813;28;9273;-81
2021/08/12 11:44:51;;;;;;;;;7.20;5.80;;;;;;;;4987928;28;8908;-81
2021/08/12 11:47:19;;;;;;;;;8.60;5.80;;;;;;;;4986247;28;8885;-82
2021/08/12 11:50:01;;;;;;;;;5.00;5.00;;;;;;;;4986568;28;8968;-83
2021/08/12 11:52:29;;;;;;;;;4.00;4.00;;;;;;;;4986873;28;8865;-82
2021/08/12 11:55:02;;;;;;;;;8.20;7.20;;;;;;;;4986372;28;8910;-81
2021/08/12 11:57:44;;;;;;;;;7.00;6.00;;;;;;;;4969636;28;8863;-83
2021/08/12 12:00:13;;;;;;;;;7.60;7.60;;;;;;;;4981286;28;8885;-84
2021/08/12 12:02:48;;;;;;;;;5.20;5.20;;;;;;;;4987102;28;8976;-83
2021/08/12 12:05:17;;;;;;;;;6.80;5.20;;;;;;;;4986477;28;9700;-81
2021/08/12 12:07:46;;;;;;;;;5.00;5.00;;;;;;;;4987003;28;8968;-83
2021/08/12 12:10:22;;;;;;;;;5.00;5.00;;;;;;;;4987117;28;8864;-84
2021/08/12 12:12:50;;;;;;;;;6.80;5.20;;;;;;;;4977654;28;8867;-83
2021/08/12 12:15:30;;;;;;;;;5.20;5.20;;;;;;;;4981879;28;8889;-82
2021/08/12 12:17:58;;;;;;;;;7.00;7.00;;;;;;;;4985640;28;8904;-82
2021/08/12 12:20:27;;;;;;;;;7.80;7.80;;;;;;;;4986612;28;8963;-82
2021/08/12 12:22:59;;;;;;;;;6.40;6.40;;;;;;;;4986422;28;8869;-84
2021/08/12 12:25:28;;;;;;;;;6.60;6.60;;;;;;;;4985993;28;8900;-82
2021/08/12 12:27:57;;;;;;;;;7.60;7.00;;;;;;;;4986580;28;9638;-81
2021/08/12 12:30:25;;;;;;;;;8.00;8.00;;;;;;;;4984877;28;8883;-81
2021/08/12 12:33:01;;;;;;;;;8.00;7.80;;;;;;;;4986509;28;8882;-82
2021/08/12 12:35:31;;;;;;;;;9.20;9.20;;;;;;;;4985706;28;8972;-81
2021/08/12 12:38:00;;;;;;;;;8.00;8.00;;;;;;;;4986247;28;8917;-81
2021/08/12 12:40:29;;;;;;;;;6.60;6.60;;;;;;;;4985926;28;9440;-82
2021/08/12 12:42:57;;;;;;;;;7.80;7.00;;;;;;;;4985475;28;8872;-82
2021/08/12 12:45:26;;;;;;;;;6.00;6.00;;;;;;;;4968731;28;8850;-82
2021/08/12 12:48:04;;;;;;;;;9.60;9.60;;;;;;;;4985061;28;8890;-82
2021/08/12 12:50:43;;;;;;;;;7.00;7.00;;;;;;;;4986188;28;9037;-82
2021/08/12 12:53:26;;;;;;;;;8.00;6.80;;;;;;;;4984845;28;8898;-82
2021/08/12 12:55:54;;;;;;;;;6.80;6.80;;;;;;;;4985564;28;8957;-82
2021/08/12 12:58:23;;;;;;;;;5.00;5.00;;;;;;;;4985738;28;8866;-83
2021/08/12 13:01:00;;;;;;;;;7.20;7.20;;;;;;;;4983343;28;8940;-83
2021/08/12 13:03:36;;;;;;;;;6.20;6.20;;;;;;;;4986400;28;8908;-81
2021/08/12 13:06:07;;;;;;;;;6.40;6.40;;;;;;;;4984955;28;8883;-81
2021/08/12 13:08:42;;;;;;;;;7.60;7.60;;;;;;;;4985512;28;8941;-82
2021/08/12 13:11:16;;;;;;;;;8.40;8.40;;;;;;;;4985774;28;8882;-82
2021/08/12 13:13:45;;;;;;;;;7.00;5.60;;;;;;;;4984608;28;8910;-84
2021/08/12 13:16:14;;;;;;;;;9.80;9.20;;;;;;;;4986004;28;8865;-82
2021/08/12 13:18:58;;;;;;;;;8.00;6.40;;;;;;;;4984280;28;8918;-83
2021/08/12 13:21:36;;;;;;;;;7.60;6.60;;;;;;;;4968418;28;8873;-83
2021/08/12 13:24:06;;;;;;;;;5.80;5.80;;;;;;;;4985625;28;9040;-83
2021/08/12 13:26:35;;;;;;;;;7.80;7.60;;;;;;;;4984030;28;8914;-82
2021/08/12 13:29:18;;;;;;;;;8.60;8.60;;;;;;;;4985212;28;8915;-82
2021/08/12 13:31:47;;;;;;;;;6.00;6.00;;;;;;;;4983146;28;8968;-83
2021/08/12 13:34:15;;;;;;;;;8.40;8.40;;;;;;;;4986044;28;8896;-82
2021/08/12 13:36:44;;;;;;;;;9.20;9.20;;;;;;;;4983538;28;8893;-83
2021/08/12 13:44:40;;;;;;;;;9.40;9.40;;;;;;;;5006214;23;8916;-82
2021/08/12 13:50:29;;;;;;;;;7.00;7.00;;;;;;;;4977422;28;8850;-83
2021/08/12 13:52:58;;;;;;;;;9.80;9.20;;;;;;;;4985553;28;8890;-83
2021/08/12 13:55:25;;;;;;;;;8.80;8.80;;;;;;;;4984460;28;8886;-84
2021/08/12 13:57:54;;;;;;;;;6.40;6.40;;;;;;;;4967604;28;8897;-83
2021/08/12 14:00:24;;;;;;;;;7.60;7.60;;;;;;;;4984731;28;8973;-81
2021/08/12 14:02:51;;;;;;;;;6.60;6.60;;;;;;;;4984395;28;8874;-83
2021/08/12 14:05:19;;;;;;;;;9.80;9.80;;;;;;;;4985537;28;8914;-82
2021/08/12 14:07:46;;;;;;;;;9.80;9.80;;;;;;;;4984172;28;8997;-82
2021/08/12 14:10:15;;;;;;;;;8.60;7.40;;;;;;;;4984648;28;8891;-83
2021/08/12 14:12:44;;;;;;;;;10.40;9.20;;;;;;;;4986328;28;8973;-81
2021/08/12 14:15:12;;;;;;;;;11.00;11.00;;;;;;;;4998956;28;8887;-82
2021/08/12 14:17:41;;;;;;;;;10.20;8.00;;;;;;;;4971378;28;8882;-81
2021/08/12 14:20:10;;;;;;;;;7.80;7.80;;;;;;;;4987751;28;8858;-83
2021/08/12 14:22:37;;;;;;;;;7.00;7.00;;;;;;;;4989252;28;8859;-83
2021/08/12 14:25:05;;;;;;;;;8.20;6.60;;;;;;;;4987338;28;8878;-82
2021/08/12 14:30:15;;;;;;;;;7.00;7.00;;;;;;;;4905484;28;8949;-84
2021/08/12 14:32:43;;;;;;;;;7.00;7.00;;;;;;;;4971048;28;8990;-82
2021/08/12 14:35:11;;;;;;;;;9.20;9.00;;;;;;;;4989081;28;8851;-84
2021/08/12 14:37:38;;;;;;;;;6.80;6.00;;;;;;;;4980316;28;9673;-84
2021/08/12 14:40:08;;;;;;;;;5.20;5.20;;;;;;;;4996564;28;8927;-84
2021/08/12 14:42:37;;;;;;;;;6.60;6.60;;;;;;;;4987233;28;8904;-84
2021/08/12 14:45:06;;;;;;;;;10.00;6.80;;;;;;;;4988711;28;8878;-83
2021/08/12 14:47:33;;;;;;;;;7.60;7.60;;;;;;;;4988445;28;8854;-84
2021/08/12 14:50:00;;;;;;;;;11.60;9.80;;;;;;;;4987906;28;8902;-84
2021/08/12 14:52:27;;;;;;;;;9.00;7.80;;;;;;;;4956269;28;8903;-85
2021/08/12 14:54:54;;;;;;;;;9.40;7.80;;;;;;;;4975909;28;9102;-83
2021/08/12 14:57:22;;;;;;;;;7.00;7.00;;;;;;;;4988912;28;8858;-82
2021/08/12 14:59:51;;;;;;;;;7.20;7.20;;;;;;;;4986514;28;8891;-83
2021/08/12 15:02:18;;;;;;;;;8.80;8.80;;;;;;;;4987789;28;8846;-80
2021/08/12 15:04:45;;;;;;;;;8.20;8.20;;;;;;;;4987563;28;8858;-81
2021/08/12 15:07:12;;;;;;;;;7.60;7.60;;;;;;;;4987472;28;9641;-81
2021/08/12 15:09:40;;;;;;;;;9.60;8.80;;;;;;;;4969900;28;8871;-82
2021/08/12 15:12:08;;;;;;;;;9.60;9.60;;;;;;;;4987210;28;8944;-81
2021/08/12 15:14:36;;;;;;;;;10.00;9.20;;;;;;;;4996238;28;8880;-81
2021/08/12 15:17:42;;;;;;;;;9.00;9.00;;;;;;;;4970718;28;8875;-81
2021/08/12 15:20:13;;;;;;;;;6.60;6.60;;;;;;;;4985554;28;8884;-81
2021/08/12 15:22:40;;;;;;;;;10.00;8.40;;;;;;;;4970577;28;8948;-81
2021/08/12 15:25:09;;;;;;;;;9.40;7.80;;;;;;;;4964284;28;8873;-81
2021/08/12 15:27:36;;;;;;;;;9.60;9.60;;;;;;;;4969304;28;8873;-82
2021/08/12 15:30:04;;;;;;;;;9.20;8.00;;;;;;;;4985555;28;8899;-82
2021/08/12 15:32:31;;;;;;;;;8.20;8.00;;;;;;;;4987788;28;8886;-82
2021/08/12 15:35:02;;;;;;;;;7.00;5.60;;;;;;;;4986787;28;8867;-81
2021/08/12 15:37:31;;;;;;;;;9.40;9.40;;;;;;;;4981324;28;8861;-84
2021/08/12 15:39:58;;;;;;;;;9.00;9.00;;;;;;;;4994295;28;8892;-83
2021/08/12 15:42:26;;;;;;;;;10.00;8.40;;;;;;;;4986977;28;8879;-83
2021/08/12 15:44:53;;;;;;;;;9.60;8.40;;;;;;;;4987096;28;8854;-83
2021/08/12 15:47:25;;;;;;;;;8.40;7.00;;;;;;;;4984619;28;8888;-82
2021/08/12 15:53:16;;;;;;;;;8.00;8.00;;;;;;;;4985864;28;8998;-83
2021/08/12 15:55:43;;;;;;;;;8.40;6.00;;;;;;;;4986381;28;8940;-82
2021/08/12 15:58:10;;;;;;;;;8.00;8.00;;;;;;;;4987214;28;8877;-82
2021/08/12 16:00:38;;;;;;;;;7.40;7.40;;;;;;;;4985082;28;8787;-82
2021/08/12 16:03:07;;;;;;;;;7.20;7.20;;;;;;;;4987517;28;8875;-81
2021/08/12 16:05:34;;;;;;;;;8.40;8.40;;;;;;;;4966401;28;8883;-86
2021/08/12 16:08:01;;;;;;;;;10.60;10.60;;;;;;;;4987090;28;8970;-83
2021/08/12 16:10:30;;;;;;;;;8.60;8.60;;;;;;;;4987059;28;8835;-86
2021/08/12 16:12:57;;;;;;;;;9.00;9.00;;;;;;;;4986293;28;9694;-85
2021/08/12 16:15:25;;;;;;;;;12.40;10.60;;;;;;;;4985378;28;8863;-85
2021/08/12 16:17:53;;;;;;;;;7.40;7.20;;;;;;;;4975252;28;9013;-82
2021/08/12 16:20:23;;;;;;;;;10.40;10.40;;;;;;;;4969409;28;8965;-85
2021/08/12 16:22:51;;;;;;;;;10.40;10.40;;;;;;;;4967892;28;8870;-84
2021/08/12 16:25:19;;;;;;;;;9.80;9.80;;;;;;;;4986681;28;8882;-84
2021/08/12 16:27:47;;;;;;;;;6.80;5.40;;;;;;;;4977860;28;8835;-84
2021/08/12 16:30:15;;;;;;;;;8.20;8.00;;;;;;;;4981969;28;8922;-85
2021/08/12 16:32:42;;;;;;;;;9.40;9.40;;;;;;;;4960843;28;8859;-84
2021/08/12 16:35:10;;;;;;;;;11.80;10.00;;;;;;;;4985691;28;8890;-83
2021/08/12 16:37:37;;;;;;;;;10.00;10.00;;;;;;;;4980445;28;8894;-85
2021/08/12 16:40:06;;;;;;;;;10.20;10.20;;;;;;;;4986028;28;8850;-85
2021/08/12 16:42:35;;;;;;;;;9.00;9.00;;;;;;;;4986716;28;8882;-85
2021/08/12 16:45:13;;;;;;;;;12.00;10.40;;;;;;;;4985433;28;8874;-84
2021/08/12 16:47:43;;;;;;;;;11.60;11.60;;;;;;;;4985250;28;8850;-85
2021/08/12 16:50:12;;;;;;;;;11.80;10.60;;;;;;;;4968583;28;8993;-84
2021/08/12 16:52:39;;;;;;;;;11.80;10.00;;;;;;;;4983755;28;8885;-84
2021/08/12 16:55:08;;;;;;;;;11.40;10.80;;;;;;;;4986324;28;8858;-83
2021/08/12 16:57:36;;;;;;;;;9.00;9.00;;;;;;;;4984601;28;8902;-83
2021/08/12 17:00:08;;;;;;;;;11.40;10.00;;;;;;;;4985639;28;9807;-84
2021/08/12 17:02:35;;;;;;;;;8.40;6.60;;;;;;;;4985216;28;8873;-84
2021/08/12 17:05:03;;;;;;;;;9.80;9.80;;;;;;;;4968667;28;8905;-84
2021/08/12 17:07:30;;;;;;;;;11.00;10.00;;;;;;;;4986226;28;8858;-84